Wetterdaten: Woche 28.06.21 - 04.07.21 (KW26)
Datum Zeit Temp. Aussen Temp. o. S. Temp +5cm Feuchte Auss Luftdruck Regen Sonnenschein Regendauer Solar Windben Empfang
28.06.2021 00:00 19,0 C 18,3 C 16,6 C 93 % 1014,5 hPa 0,0 l/m 0,00 h 0,00 h 0 W/m 1,7 km/h (1 Bft) 94,65 %
28.06.2021 01:00 18,6 C 17,8 C 16,0 C 93 % 1014,3 hPa 0,0 l/m 0,00 h 0,00 h 0 W/m 1,8 km/h (1 Bft) 98,63 %
28.06.2021 02:00 18,1 C 16,9 C 15,6 C 94 % 1013,8 hPa 0,0 l/m 0,00 h 0,00 h 0 W/m 0,0 km/h (0 Bft) 97,51 %
28.06.2021 03:00 17,6 C 16,7 C 15,6 C 95 % 1013,6 hPa 0,0 l/m 0,00 h 0,00 h 0 W/m 0,0 km/h (0 Bft) 98,43 %
28.06.2021 04:00 17,4 C 16,5 C 15,4 C 96 % 1013,6 hPa 0,0 l/m 0,00 h 0,00 h 0 W/m 0,0 km/h (0 Bft) 95,56 %
28.06.2021 05:00 16,8 C 15,7 C 14,9 C 96 % 1013,5 hPa 0,0 l/m 0,00 h 0,00 h 10 W/m 0,0 km/h (0 Bft) 97,92 %
28.06.2021 06:00 16,9 C 16,5 C 15,6 C 97 % 1013,7 hPa 0,0 l/m 0,00 h 0,00 h 32 W/m 0,0 km/h (0 Bft) 98,05 %
28.06.2021 07:00 17,8 C 18,1 C 16,8 C 98 % 1013,5 hPa 0,0 l/m 0,00 h 0,00 h 67 W/m 0,0 km/h (0 Bft) 98,07 %
28.06.2021 08:00 19,9 C 21,8 C 19,7 C 97 % 1013,4 hPa 0,0 l/m 0,77 h 0,00 h 286 W/m 0,0 km/h (0 Bft) 97,01 %
28.06.2021 09:00 23,0 C 27,5 C 23,8 C 87 % 1013,5 hPa 0,0 l/m 0,87 h 0,00 h 523 W/m 0,0 km/h (0 Bft) 94,10 %
28.06.2021 10:00 25,1 C 27,2 C 26,2 C 78 % 1013,4 hPa 0,0 l/m 0,57 h 0,00 h 436 W/m 0,0 km/h (0 Bft) 97,63 %
28.06.2021 11:00 25,2 C 26,4 C 24,1 C 78 % 1013,6 hPa 0,0 l/m 0,57 h 0,00 h 447 W/m 0,6 km/h (0 Bft) 97,49 %
28.06.2021 12:00 25,5 C 25,2 C 22,5 C 79 % 1013,7 hPa 0,0 l/m 0,00 h 0,27 h 292 W/m 10,6 km/h (2 Bft) 98,45 %
28.06.2021 13:00 26,7 C 28,5 C 30,6 C 75 % 1013,0 hPa 0,0 l/m 0,73 h 0,00 h 742 W/m 7,5 km/h (2 Bft) 95,87 %
28.06.2021 14:00 28,2 C 28,5 C 26,4 C 66 % 1012,9 hPa 0,0 l/m 0,40 h 0,00 h 475 W/m 14,0 km/h (3 Bft) 98,28 %
28.06.2021 15:00 27,0 C 27,0 C 24,4 C 69 % 1013,0 hPa 0,0 l/m 0,10 h 0,00 h 355 W/m 17,6 km/h (3 Bft) 99,36 %
28.06.2021 16:00 26,3 C 27,8 C 23,8 C 74 % 1013,3 hPa 0,0 l/m 0,43 h 0,00 h 473 W/m 13,2 km/h (3 Bft) 95,09 %
28.06.2021 17:00 27,3 C 30,9 C 24,3 C 70 % 1013,4 hPa 0,0 l/m 1,00 h 0,00 h 618 W/m 13,7 km/h (3 Bft) 98,57 %
28.06.2021 18:00 26,8 C 30,1 C 23,9 C 69 % 1013,2 hPa 0,0 l/m 1,00 h 0,00 h 436 W/m 11,6 km/h (2 Bft) 98,90 %
28.06.2021 19:00 25,7 C 25,5 C 22,5 C 72 % 1012,9 hPa 0,0 l/m 0,23 h 0,00 h 147 W/m 8,6 km/h (2 Bft) 96,21 %
28.06.2021 20:00 24,2 C 23,3 C 21,1 C 78 % 1012,8 hPa 0,0 l/m 0,27 h 0,00 h 69 W/m 4,7 km/h (1 Bft) 97,22 %
28.06.2021 21:00 23,6 C 22,4 C 20,2 C 81 % 1012,8 hPa 0,0 l/m 0,10 h 0,00 h 21 W/m 2,0 km/h (1 Bft) 97,86 %
28.06.2021 22:00 22,5 C 20,9 C 19,1 C 85 % 1013,2 hPa 0,0 l/m 0,00 h 0,00 h 0 W/m 0,3 km/h (0 Bft) 98,73 %
28.06.2021 23:00 21,5 C 20,4 C 18,8 C 89 % 1013,0 hPa 0,0 l/m 0,00 h 0,00 h 0 W/m 0,6 km/h (0 Bft) 96,30 %
29.06.2021 00:00 21,2 C 20,1 C 18,7 C 90 % 1012,7 hPa 0,0 l/m 0,00 h 0,00 h 0 W/m 0,1 km/h (0 Bft) 96,96 %
29.06.2021 01:00 21,0 C 20,0 C 18,4 C 91 % 1012,5 hPa 0,0 l/m 0,00 h 0,00 h 0 W/m 0,4 km/h (0 Bft) 98,15 %
29.06.2021 02:00 20,8 C 20,0 C 18,4 C 92 % 1012,0 hPa 0,6 l/m 0,00 h 0,07 h 0 W/m 2,0 km/h (1 Bft) 99,00 %
29.06.2021 03:00 18,9 C 17,4 C 16,2 C 97 % 1012,1 hPa 16,0 l/m 0,00 h 0,43 h 0 W/m 13,8 km/h (3 Bft) 96,30 %
29.06.2021 04:00 17,9 C 16,7 C 15,9 C 98 % 1011,7 hPa 0,0 l/m 0,00 h 0,00 h 0 W/m 1,0 km/h (0 Bft) 95,86 %
29.06.2021 05:00 17,6 C 16,7 C 16,1 C 99 % 1011,8 hPa 0,0 l/m 0,00 h 0,00 h 10 W/m 5,4 km/h (1 Bft) 99,01 %
29.06.2021 06:00 18,0 C 17,3 C 16,8 C 100 % 1011,8 hPa 0,0 l/m 0,00 h 0,00 h 48 W/m 8,0 km/h (2 Bft) 97,64 %
29.06.2021 07:00 18,3 C 17,9 C 17,3 C 100 % 1011,8 hPa 0,0 l/m 0,47 h 0,00 h 133 W/m 12,5 km/h (3 Bft) 97,51 %
29.06.2021 08:00 18,8 C 19,4 C 18,1 C 98 % 1011,9 hPa 0,0 l/m 0,63 h 0,00 h 272 W/m 13,7 km/h (3 Bft) 98,71 %
29.06.2021 09:00 19,1 C 18,9 C 17,8 C 95 % 1011,9 hPa 0,0 l/m 0,00 h 0,00 h 146 W/m 10,3 km/h (2 Bft) 97,30 %
29.06.2021 10:00 20,0 C 20,8 C 20,4 C 93 % 1011,9 hPa 0,0 l/m 0,37 h 0,00 h 343 W/m 10,1 km/h (2 Bft) 95,78 %
29.06.2021 11:00 21,5 C 23,0 C 22,6 C 88 % 1011,9 hPa 0,0 l/m 0,73 h 0,00 h 517 W/m 9,6 km/h (2 Bft) 96,72 %
29.06.2021 12:00 24,0 C 25,4 C 27,8 C 77 % 1011,6 hPa 0,0 l/m 0,83 h 0,00 h 711 W/m 11,6 km/h (2 Bft) 99,47 %
29.06.2021 13:00 24,9 C 26,1 C 29,4 C 74 % 1011,3 hPa 0,0 l/m 0,63 h 0,00 h 727 W/m 11,9 km/h (2 Bft) 98,23 %
29.06.2021 14:00 25,7 C 27,1 C 23,6 C 68 % 1010,8 hPa 0,0 l/m 0,77 h 0,00 h 765 W/m 14,7 km/h (3 Bft) 95,02 %
29.06.2021 15:00 26,4 C 27,7 C 23,1 C 65 % 1010,1 hPa 0,0 l/m 0,80 h 0,00 h 726 W/m 13,0 km/h (3 Bft) 99,50 %
29.06.2021 16:00 26,4 C 28,6 C 23,2 C 65 % 1009,7 hPa 0,0 l/m 0,83 h 0,00 h 539 W/m 12,6 km/h (3 Bft) 97,99 %
29.06.2021 17:00 26,2 C 26,9 C 23,0 C 65 % 1009,6 hPa 0,0 l/m 0,53 h 0,00 h 343 W/m 8,9 km/h (2 Bft) 96,37 %
29.06.2021 18:00 24,7 C 23,9 C 21,5 C 71 % 1009,3 hPa 0,0 l/m 0,00 h 0,00 h 147 W/m 11,6 km/h (2 Bft) 97,71 %
29.06.2021 19:00 22,6 C 21,5 C 19,6 C 80 % 1009,5 hPa 0,0 l/m 0,00 h 0,00 h 59 W/m 17,5 km/h (3 Bft) 98,29 %
29.06.2021 20:00 18,2 C 16,6 C 15,0 C 93 % 1010,4 hPa 12,8 l/m 0,00 h 0,97 h 7 W/m 19,0 km/h (3 Bft) 97,16 %
29.06.2021 21:00 17,5 C 16,3 C 14,9 C 98 % 1010,8 hPa 14,8 l/m 0,00 h 1,00 h 0 W/m 8,9 km/h (2 Bft) 96,65 %
29.06.2021 22:00 16,7 C 15,6 C 14,9 C 99 % 1011,3 hPa 5,8 l/m 0,00 h 1,00 h 0 W/m 6,9 km/h (2 Bft) 97,05 %
29.06.2021 23:00 16,5 C 15,6 C 15,3 C 99 % 1011,4 hPa 1,0 l/m 0,00 h 0,90 h 0 W/m 8,5 km/h (2 Bft) 97,93 %
30.06.2021 00:00 15,9 C 14,8 C 15,0 C 99 % 1011,5 hPa 2,0 l/m 0,00 h 1,00 h 0 W/m 8,3 km/h (2 Bft) 98,03 %
30.06.2021 01:00 15,6 C 14,5 C 15,0 C 99 % 1010,8 hPa 1,0 l/m 0,00 h 1,00 h 0 W/m 8,4 km/h (2 Bft) 99,22 %
30.06.2021 02:00 15,4 C 14,4 C 15,1 C 100 % 1010,8 hPa 0,4 l/m 0,00 h 0,43 h 0 W/m 3,8 km/h (1 Bft) 97,73 %
30.06.2021 03:00 15,4 C 14,4 C 15,6 C 100 % 1010,5 hPa 0,2 l/m 0,00 h 0,03 h 0 W/m 5,2 km/h (1 Bft) 96,81 %
30.06.2021 04:00 15,4 C 14,4 C 15,6 C 100 % 1010,2 hPa 0,0 l/m 0,00 h 0,00 h 0 W/m 4,5 km/h (1 Bft) 97,16 %
30.06.2021 05:00 15,3 C 14,4 C 15,6 C 100 % 1010,3 hPa 0,0 l/m 0,00 h 0,17 h 0 W/m 6,4 km/h (2 Bft) 96,17 %
30.06.2021 06:00 15,3 C 14,5 C 15,6 C 100 % 1010,4 hPa 0,0 l/m 0,00 h 0,00 h 21 W/m 7,0 km/h (2 Bft) 97,74 %
30.06.2021 07:00 15,5 C 15,0 C 16,1 C 100 % 1010,4 hPa 0,0 l/m 0,00 h 0,00 h 40 W/m 6,1 km/h (2 Bft) 98,79 %
30.06.2021 08:00 15,4 C 15,0 C 16,1 C 100 % 1010,6 hPa 0,0 l/m 0,00 h 0,00 h 65 W/m 6,0 km/h (2 Bft) 98,36 %
30.06.2021 09:00 15,5 C 15,1 C 16,2 C 100 % 1011,0 hPa 0,0 l/m 0,00 h 0,17 h 103 W/m 5,2 km/h (1 Bft) 97,65 %
30.06.2021 10:00 16,1 C 16,8 C 17,3 C 100 % 1011,1 hPa 0,2 l/m 0,23 h 0,00 h 286 W/m 6,7 km/h (2 Bft) 98,72 %
30.06.2021 11:00 16,8 C 17,5 C 17,8 C 97 % 1011,3 hPa 0,0 l/m 0,27 h 0,00 h 321 W/m 10,7 km/h (2 Bft) 97,79 %
30.06.2021 12:00 17,1 C 17,2 C 17,4 C 93 % 1011,6 hPa 0,0 l/m 0,00 h 0,00 h 212 W/m 9,8 km/h (2 Bft) 96,76 %
30.06.2021 13:00 16,9 C 16,4 C 17,0 C 93 % 1011,8 hPa 0,0 l/m 0,00 h 0,13 h 149 W/m 8,9 km/h (2 Bft) 97,23 %
30.06.2021 14:00 16,4 C 16,2 C 16,7 C 96 % 1012,1 hPa 0,2 l/m 0,00 h 0,20 h 142 W/m 9,0 km/h (2 Bft) 95,47 %
30.06.2021 15:00 16,8 C 17,3 C 17,7 C 95 % 1012,2 hPa 0,0 l/m 0,00 h 0,00 h 216 W/m 8,2 km/h (2 Bft) 99,15 %
30.06.2021 16:00 17,3 C 17,1 C 17,8 C 91 % 1012,3 hPa 0,0 l/m 0,00 h 0,13 h 125 W/m 10,1 km/h (2 Bft) 99,29 %
30.06.2021 17:00 16,2 C 15,9 C 16,2 C 96 % 1012,5 hPa 0,0 l/m 0,00 h 0,27 h 136 W/m 9,9 km/h (2 Bft) 95,59 %
30.06.2021 18:00 16,5 C 16,4 C 17,1 C 95 % 1012,4 hPa 0,0 l/m 0,00 h 0,00 h 130 W/m 10,1 km/h (2 Bft) 99,41 %
30.06.2021 19:00 16,1 C 15,6 C 16,1 C 96 % 1012,7 hPa 0,2 l/m 0,00 h 0,13 h 59 W/m 8,8 km/h (2 Bft) 99,14 %
30.06.2021 20:00 15,7 C 15,2 C 16,0 C 97 % 1013,1 hPa 0,0 l/m 0,00 h 0,00 h 11 W/m 8,9 km/h (2 Bft) 95,11 %
30.06.2021 21:00 15,1 C 14,3 C 15,6 C 97 % 1013,7 hPa 0,0 l/m 0,00 h 0,00 h 8 W/m 11,5 km/h (2 Bft) 97,20 %
30.06.2021 22:00 14,5 C 13,9 C 15,0 C 97 % 1014,2 hPa 0,0 l/m 0,00 h 0,03 h 0 W/m 8,8 km/h (2 Bft) 97,23 %
30.06.2021 23:00 14,3 C 13,8 C 15,0 C 98 % 1014,3 hPa 0,2 l/m 0,00 h 0,00 h 0 W/m 9,3 km/h (2 Bft) 94,26 %
01.07.2021 00:00 14,0 C 13,3 C 15,0 C 98 % 1014,5 hPa 0,0 l/m 0,00 h 0,00 h 0 W/m 6,2 km/h (2 Bft) 98,26 %
01.07.2021 01:00 13,9 C 13,3 C 15,0 C 97 % 1014,5 hPa 0,0 l/m 0,00 h 0,00 h 0 W/m 6,3 km/h (2 Bft) 99,29 %
01.07.2021 02:00 13,9 C 13,3 C 15,0 C 97 % 1014,5 hPa 0,0 l/m 0,00 h 0,00 h 0 W/m 7,5 km/h (2 Bft) 96,23 %
01.07.2021 03:00 13,8 C 13,3 C 15,0 C 97 % 1014,6 hPa 0,0 l/m 0,00 h 0,00 h 0 W/m 10,4 km/h (2 Bft) 99,52 %
01.07.2021 04:00 13,7 C 13,1 C 15,0 C 98 % 1014,5 hPa 0,0 l/m 0,00 h 0,00 h 0 W/m 7,9 km/h (2 Bft) 98,74 %
01.07.2021 05:00 13,5 C 12,8 C 14,6 C 98 % 1014,5 hPa 0,4 l/m 0,00 h 0,27 h 0 W/m 9,1 km/h (2 Bft) 96,58 %
01.07.2021 06:00 13,3 C 12,8 C 14,5 C 99 % 1014,8 hPa 0,2 l/m 0,00 h 0,00 h 14 W/m 8,3 km/h (2 Bft) 99,18 %
01.07.2021 07:00 13,2 C 12,8 C 14,6 C 99 % 1014,9 hPa 0,2 l/m 0,00 h 0,10 h 52 W/m 12,0 km/h (2 Bft) 98,58 %
01.07.2021 08:00 13,4 C 13,2 C 15,0 C 98 % 1014,9 hPa 0,0 l/m 0,00 h 0,00 h 74 W/m 11,3 km/h (2 Bft) 96,64 %
01.07.2021 09:00 13,9 C 14,0 C 15,5 C 96 % 1015,2 hPa 0,0 l/m 0,00 h 0,00 h 152 W/m 11,8 km/h (2 Bft) 99,71 %
01.07.2021 10:00 14,1 C 14,0 C 15,6 C 93 % 1015,4 hPa 0,0 l/m 0,00 h 0,00 h 118 W/m 13,0 km/h (3 Bft) 96,04 %
01.07.2021 11:00 14,3 C 14,4 C 15,9 C 93 % 1015,7 hPa 0,0 l/m 0,00 h 0,00 h 142 W/m 13,3 km/h (3 Bft) 97,37 %
01.07.2021 12:00 14,8 C 14,4 C 15,9 C 90 % 1015,8 hPa 0,0 l/m 0,00 h 0,00 h 125 W/m 15,2 km/h (3 Bft) 90,27 %
01.07.2021 13:00 14,8 C 14,6 C 15,4 C 92 % 1016,0 hPa 0,0 l/m 0,00 h 0,00 h 205 W/m 15,4 km/h (3 Bft) 93,75 %
01.07.2021 14:00 14,9 C 14,9 C 15,6 C 94 % 1016,3 hPa 0,0 l/m 0,00 h 0,00 h 200 W/m 14,4 km/h (3 Bft) 94,77 %
01.07.2021 15:00 14,8 C 14,5 C 15,1 C 95 % 1016,6 hPa 0,0 l/m 0,00 h 0,03 h 165 W/m 14,6 km/h (3 Bft) 97,52 %
01.07.2021 16:00 14,5 C 14,2 C 14,9 C 96 % 1016,8 hPa 0,0 l/m 0,00 h 0,20 h 126 W/m 13,0 km/h (3 Bft) 96,73 %
01.07.2021 17:00 14,3 C 13,9 C 15,0 C 96 % 1016,9 hPa 0,0 l/m 0,00 h 0,00 h 93 W/m 12,8 km/h (3 Bft) 98,00 %
01.07.2021 18:00 14,1 C 13,9 C 14,6 C 97 % 1017,0 hPa 0,0 l/m 0,00 h 0,27 h 66 W/m 12,1 km/h (2 Bft) 99,72 %
01.07.2021 19:00 14,2 C 13,9 C 15,0 C 97 % 1017,1 hPa 0,0 l/m 0,00 h 0,30 h 52 W/m 8,6 km/h (2 Bft) 96,59 %
01.07.2021 20:00 14,2 C 13,6 C 14,9 C 97 % 1017,1 hPa 0,4 l/m 0,00 h 0,50 h 32 W/m 6,6 km/h (2 Bft) 97,93 %
01.07.2021 21:00 14,2 C 13,3 C 14,8 C 97 % 1017,1 hPa 0,4 l/m 0,00 h 0,57 h 14 W/m 4,4 km/h (1 Bft) 99,57 %
01.07.2021 22:00 14,2 C 13,3 C 15,0 C 98 % 1017,4 hPa 0,0 l/m 0,00 h 0,00 h 0 W/m 2,7 km/h (1 Bft) 96,86 %
01.07.2021 23:00 14,0 C 13,3 C 15,0 C 98 % 1017,4 hPa 0,0 l/m 0,00 h 0,00 h 0 W/m 2,5 km/h (1 Bft) 98,68 %
02.07.2021 00:00 13,9 C 13,3 C 15,0 C 98 % 1017,4 hPa 0,0 l/m 0,00 h 0,00 h 0 W/m 5,0 km/h (1 Bft) 99,93 %
02.07.2021 01:00 13,8 C 13,0 C 15,0 C 98 % 1017,3 hPa 0,0 l/m 0,00 h 0,00 h 0 W/m 3,3 km/h (1 Bft) 96,03 %
02.07.2021 02:00 13,7 C 12,8 C 15,0 C 98 % 1017,2 hPa 0,0 l/m 0,00 h 0,00 h 0 W/m 1,8 km/h (1 Bft) 99,36 %
02.07.2021 03:00 13,5 C 12,8 C 14,8 C 98 % 1016,9 hPa 0,0 l/m 0,00 h 0,00 h 0 W/m 1,0 km/h (0 Bft) 99,58 %
02.07.2021 04:00 13,2 C 12,2 C 14,3 C 98 % 1016,8 hPa 0,0 l/m 0,00 h 0,00 h 0 W/m 0,6 km/h (0 Bft) 95,94 %
02.07.2021 05:00 12,5 C 11,3 C 13,4 C 98 % 1016,9 hPa 0,0 l/m 0,00 h 0,00 h 7 W/m 0,6 km/h (0 Bft) 99,38 %
02.07.2021 06:00 12,4 C 12,1 C 14,2 C 98 % 1017,1 hPa 0,0 l/m 0,00 h 0,00 h 28 W/m 1,5 km/h (1 Bft) 98,42 %
02.07.2021 07:00 13,0 C 13,4 C 15,3 C 99 % 1017,2 hPa 0,0 l/m 0,00 h 0,00 h 75 W/m 0,1 km/h (0 Bft) 97,72 %
02.07.2021 08:00 13,9 C 14,8 C 16,4 C 96 % 1017,4 hPa 0,0 l/m 0,07 h 0,00 h 165 W/m 4,4 km/h (1 Bft) 98,74 %
02.07.2021 09:00 16,9 C 21,3 C 20,9 C 85 % 1017,5 hPa 0,0 l/m 1,00 h 0,00 h 453 W/m 10,0 km/h (2 Bft) 98,64 %
02.07.2021 10:00 18,3 C 19,4 C 19,6 C 76 % 1017,7 hPa 0,0 l/m 0,70 h 0,00 h 391 W/m 13,3 km/h (3 Bft) 94,55 %
02.07.2021 11:00 18,8 C 20,4 C 19,8 C 76 % 1017,8 hPa 0,0 l/m 0,80 h 0,00 h 555 W/m 9,5 km/h (2 Bft) 97,92 %
02.07.2021 12:00 20,2 C 21,3 C 21,0 C 72 % 1018,0 hPa 0,0 l/m 0,50 h 0,00 h 486 W/m 10,7 km/h (2 Bft) 98,09 %
02.07.2021 13:00 20,4 C 21,5 C 21,9 C 73 % 1018,0 hPa 0,0 l/m 0,57 h 0,00 h 492 W/m 11,9 km/h (2 Bft) 98,83 %
02.07.2021 14:00 20,2 C 20,6 C 18,9 C 73 % 1017,9 hPa 0,0 l/m 0,27 h 0,00 h 365 W/m 12,5 km/h (3 Bft) 96,13 %
02.07.2021 15:00 20,4 C 21,7 C 18,8 C 74 % 1017,8 hPa 0,0 l/m 0,80 h 0,00 h 499 W/m 10,3 km/h (2 Bft) 96,80 %
02.07.2021 16:00 21,5 C 22,8 C 19,5 C 73 % 1017,9 hPa 0,0 l/m 0,77 h 0,00 h 469 W/m 12,6 km/h (3 Bft) 99,29 %
02.07.2021 17:00 22,0 C 24,8 C 19,7 C 73 % 1018,1 hPa 0,0 l/m 0,97 h 0,00 h 483 W/m 12,3 km/h (3 Bft) 96,54 %
02.07.2021 18:00 23,3 C 27,3 C 20,5 C 69 % 1017,9 hPa 0,0 l/m 1,00 h 0,00 h 433 W/m 10,4 km/h (2 Bft) 96,58 %
02.07.2021 19:00 22,6 C 22,9 C 19,2 C 71 % 1017,6 hPa 0,0 l/m 1,00 h 0,00 h 248 W/m 9,0 km/h (2 Bft) 98,08 %
02.07.2021 20:00 21,0 C 19,9 C 17,4 C 76 % 1017,4 hPa 0,0 l/m 0,03 h 0,00 h 54 W/m 5,4 km/h (1 Bft) 96,75 %
02.07.2021 21:00 19,5 C 18,0 C 15,9 C 83 % 1017,4 hPa 0,0 l/m 0,00 h 0,00 h 16 W/m 1,2 km/h (1 Bft) 96,71 %
02.07.2021 22:00 17,9 C 16,0 C 14,5 C 88 % 1017,8 hPa 0,0 l/m 0,00 h 0,00 h 0 W/m 0,0 km/h (0 Bft) 97,97 %
02.07.2021 23:00 16,6 C 15,0 C 13,7 C 92 % 1017,7 hPa 0,0 l/m 0,00 h 0,00 h 0 W/m 0,0 km/h (0 Bft) 96,15 %
03.07.2021 00:00 15,7 C 14,3 C 13,4 C 94 % 1017,5 hPa 0,0 l/m 0,00 h 0,00 h 0 W/m 0,0 km/h (0 Bft) 99,65 %
03.07.2021 01:00 15,1 C 13,9 C 13,4 C 95 % 1017,4 hPa 0,0 l/m 0,00 h 0,00 h 0 W/m 0,0 km/h (0 Bft) 98,07 %
03.07.2021 02:00 14,5 C 13,3 C 13,4 C 96 % 1017,1 hPa 0,0 l/m 0,00 h 0,00 h 0 W/m 0,0 km/h (0 Bft) 98,05 %
03.07.2021 03:00 14,0 C 12,8 C 13,2 C 96 % 1017,0 hPa 0,0 l/m 0,00 h 0,00 h 0 W/m 0,1 km/h (0 Bft) 97,28 %
03.07.2021 04:00 13,6 C 12,7 C 12,8 C 97 % 1017,0 hPa 0,0 l/m 0,00 h 0,00 h 0 W/m 0,0 km/h (0 Bft) 99,71 %
03.07.2021 05:00 13,3 C 12,4 C 12,9 C 98 % 1016,7 hPa 0,0 l/m 0,00 h 0,00 h 11 W/m 0,0 km/h (0 Bft) 97,63 %
03.07.2021 06:00 13,7 C 13,5 C 13,9 C 98 % 1016,5 hPa 0,0 l/m 0,00 h 0,00 h 39 W/m 0,0 km/h (0 Bft) 94,79 %
03.07.2021 07:00 14,7 C 14,9 C 15,1 C 99 % 1016,5 hPa 0,0 l/m 0,23 h 0,00 h 97 W/m 1,6 km/h (1 Bft) 97,51 %
03.07.2021 08:00 16,9 C 19,3 C 18,1 C 97 % 1016,4 hPa 0,0 l/m 0,83 h 0,00 h 337 W/m 4,8 km/h (1 Bft) 97,23 %
03.07.2021 09:00 20,9 C 25,4 C 22,7 C 80 % 1016,2 hPa 0,0 l/m 1,00 h 0,00 h 546 W/m 10,3 km/h (2 Bft) 96,03 %
03.07.2021 10:00 23,2 C 25,6 C 27,8 C 71 % 1015,8 hPa 0,0 l/m 1,00 h 0,00 h 696 W/m 9,5 km/h (2 Bft) 99,59 %
03.07.2021 11:00 25,0 C 27,2 C 26,3 C 65 % 1015,5 hPa 0,0 l/m 1,00 h 0,00 h 813 W/m 9,9 km/h (2 Bft) 95,99 %
03.07.2021 12:00 26,3 C 28,0 C 31,0 C 60 % 1015,2 hPa 0,0 l/m 0,90 h 0,00 h 805 W/m 9,4 km/h (2 Bft) 97,44 %
03.07.2021 13:00 26,5 C 28,6 C 31,4 C 61 % 1014,7 hPa 0,0 l/m 1,00 h 0,00 h 802 W/m 11,1 km/h (2 Bft) 98,98 %
03.07.2021 14:00 26,6 C 27,4 C 25,4 C 59 % 1014,3 hPa 0,0 l/m 0,50 h 0,00 h 416 W/m 7,9 km/h (2 Bft) 97,39 %
03.07.2021 15:00 25,8 C 26,2 C 23,5 C 61 % 1014,1 hPa 0,0 l/m 0,13 h 0,00 h 318 W/m 9,4 km/h (2 Bft) 96,37 %
03.07.2021 16:00 25,4 C 25,3 C 22,8 C 62 % 1014,0 hPa 0,0 l/m 0,13 h 0,03 h 247 W/m 11,0 km/h (2 Bft) 98,00 %
03.07.2021 17:00 24,1 C 23,5 C 21,3 C 69 % 1013,9 hPa 0,0 l/m 0,00 h 0,13 h 146 W/m 9,1 km/h (2 Bft) 98,94 %
03.07.2021 18:00 23,1 C 23,0 C 20,4 C 69 % 1013,5 hPa 0,0 l/m 0,00 h 0,00 h 135 W/m 5,2 km/h (1 Bft) 96,29 %
03.07.2021 19:00 23,3 C 22,5 C 20,0 C 71 % 1013,2 hPa 0,0 l/m 0,00 h 0,00 h 50 W/m 3,4 km/h (1 Bft) 96,84 %
03.07.2021 20:00 22,4 C 21,1 C 18,7 C 78 % 1012,9 hPa 0,0 l/m 0,00 h 0,00 h 13 W/m 1,6 km/h (1 Bft) 99,56 %
03.07.2021 21:00 21,7 C 20,7 C 18,5 C 80 % 1013,1 hPa 0,0 l/m 0,00 h 0,00 h 4 W/m 3,5 km/h (1 Bft) 97,24 %
03.07.2021 22:00 20,8 C 19,6 C 17,5 C 83 % 1013,4 hPa 0,0 l/m 0,00 h 0,00 h 0 W/m 4,7 km/h (1 Bft) 95,60 %
03.07.2021 23:00 19,9 C 18,7 C 16,8 C 87 % 1013,2 hPa 0,0 l/m 0,00 h 0,00 h 0 W/m 4,4 km/h (1 Bft) 99,65 %
04.07.2021 00:00 19,2 C 17,9 C 16,0 C 90 % 1012,8 hPa 0,0 l/m 0,00 h 0,00 h 0 W/m 0,4 km/h (0 Bft) 94,00 %
04.07.2021 01:00 18,7 C 17,8 C 16,1 C 93 % 1012,6 hPa 0,4 l/m 0,00 h 0,20 h 0 W/m 0,2 km/h (0 Bft) 97,79 %
04.07.2021 02:00 18,4 C 17,1 C 15,6 C 94 % 1011,9 hPa 0,0 l/m 0,00 h 0,00 h 0 W/m 0,5 km/h (0 Bft) 97,51 %
04.07.2021 03:00 18,0 C 16,8 C 15,6 C 96 % 1011,7 hPa 0,0 l/m 0,00 h 0,00 h 0 W/m 0,9 km/h (0 Bft) 95,37 %
04.07.2021 04:00 17,6 C 16,7 C 16,0 C 97 % 1011,4 hPa 0,0 l/m 0,00 h 0,00 h 0 W/m 0,0 km/h (0 Bft) 97,24 %
04.07.2021 05:00 17,6 C 16,7 C 16,5 C 98 % 1011,3 hPa 0,0 l/m 0,00 h 0,03 h 5 W/m 0,0 km/h (0 Bft) 99,72 %
04.07.2021 06:00 17,7 C 17,1 C 16,9 C 98 % 1011,3 hPa 0,0 l/m 0,00 h 0,00 h 30 W/m 0,0 km/h (0 Bft) 97,13 %
04.07.2021 07:00 18,1 C 18,1 C 18,0 C 98 % 1011,3 hPa 0,0 l/m 0,23 h 0,00 h 117 W/m 4,6 km/h (1 Bft) 98,63 %
04.07.2021 08:00 19,1 C 20,2 C 19,3 C 95 % 1011,0 hPa 0,0 l/m 0,53 h 0,00 h 223 W/m 4,5 km/h (1 Bft) 98,80 %
04.07.2021 09:00 20,9 C 23,5 C 22,0 C 89 % 1010,7 hPa 0,0 l/m 0,63 h 0,00 h 374 W/m 5,2 km/h (1 Bft) 93,95 %
04.07.2021 10:00 22,9 C 24,7 C 25,4 C 81 % 1010,3 hPa 0,0 l/m 0,73 h 0,00 h 511 W/m 5,7 km/h (1 Bft) 98,70 %
04.07.2021 11:00 24,5 C 26,2 C 24,3 C 75 % 1009,8 hPa 0,0 l/m 0,73 h 0,03 h 609 W/m 8,5 km/h (2 Bft) 99,79 %
04.07.2021 12:00 22,9 C 23,0 C 24,4 C 85 % 1009,2 hPa 1,0 l/m 0,67 h 0,30 h 648 W/m 7,4 km/h (2 Bft) 97,01 %
04.07.2021 13:00 24,9 C 25,3 C 25,9 C 73 % 1008,4 hPa 0,0 l/m 0,50 h 0,00 h 486 W/m 5,5 km/h (1 Bft) 95,51 %
04.07.2021 14:00 23,6 C 22,2 C 19,7 C 79 % 1008,3 hPa 1,2 l/m 0,00 h 0,57 h 101 W/m 9,2 km/h (2 Bft) 98,37 %
04.07.2021 15:00 17,2 C 15,3 C 13,9 C 92 % 1009,5 hPa 3,2 l/m 0,00 h 1,00 h 47 W/m 21,0 km/h (4 Bft) 98,72 %
04.07.2021 16:00 16,0 C 14,9 C 14,2 C 97 % 1009,8 hPa 1,4 l/m 0,00 h 0,97 h 84 W/m 6,5 km/h (2 Bft) 97,78 %
04.07.2021 17:00 16,5 C 16,0 C 15,3 C 97 % 1009,3 hPa 0,2 l/m 0,00 h 0,57 h 149 W/m 2,9 km/h (1 Bft) 96,52 %
04.07.2021 18:00 17,0 C 17,0 C 16,0 C 97 % 1009,2 hPa 0,0 l/m 0,17 h 0,00 h 205 W/m 11,2 km/h (2 Bft) 96,52 %
04.07.2021 19:00 17,4 C 17,3 C 16,1 C 94 % 1009,3 hPa 0,0 l/m 0,60 h 0,00 h 192 W/m 15,1 km/h (3 Bft) 98,34 %
04.07.2021 20:00 17,5 C 16,7 C 15,8 C 92 % 1009,7 hPa 0,0 l/m 0,00 h 0,00 h 44 W/m 9,3 km/h (2 Bft) 97,71 %
04.07.2021 21:00 16,9 C 15,8 C 15,4 C 94 % 1009,8 hPa 0,0 l/m 0,00 h 0,00 h 17 W/m 4,4 km/h (1 Bft) 98,22 %
04.07.2021 22:00 16,3 C 15,0 C 15,0 C 95 % 1009,9 hPa 0,0 l/m 0,00 h 0,00 h 0 W/m 3,2 km/h (1 Bft) 99,00 %
04.07.2021 23:00 15,5 C 14,3 C 14,6 C 96 % 1010,2 hPa 0,0 l/m 0,00 h 0,00 h 0 W/m 5,2 km/h (1 Bft) 97,36 %
Min-Datum _ 02.07.21 02.07.21 03.07.21 03.07.21 04.07.21 - - - - 28.06.21 28.06.21
_ Min-Zeit 05:46 05:00 03:40 13:58 14:10 - - - - 00:00 00:02
Minimum _ 12,3 C 11,1 C 12,8 C 56 % 1008,0 hPa - - - - 0,0 km/h (0 Bft) 7,69 %
Max-Datum _ 28.06.21 28.06.21 28.06.21 29.06.21 02.07.21 29.06.21 28.06.21 30.06.21 02.07.21 29.06.21 28.06.21
_ Max-Zeit 14:22 17:06 13:48 06:18 12:50 03:06 18:08 00:08 13:44 20:00 00:18
Maximum _ 28,8 C 32,2 C 36,7 C 100 % 1018,2 hPa 16,0 l/m 0,07 h 0,07 h 1137 W/m 64,4 km/h
S-SW (8 Bft)
100,00 %
Durchschnitt _ 18,6 C 18,5 C 18,0 C 89 % 1013,6 hPa #64,4 l/m #34:08 h #14:28 h 251 W/m 7,0 km/h (2 Bft) 97,50 %
© 2021 W. Hausmann